createdAt,value
2018-07-28T00:00:15.144Z,21.76
2018-07-28T00:01:15.132Z,21.67
2018-07-28T00:02:15.134Z,21.46
2018-07-28T00:03:15.136Z,21.42
2018-07-28T00:04:15.140Z,21.30
2018-07-28T00:05:15.145Z,21.24
2018-07-28T00:06:15.133Z,21.14
2018-07-28T00:07:15.136Z,21.04
2018-07-28T00:08:15.133Z,21.09
2018-07-28T00:09:15.133Z,21.08
2018-07-28T00:10:15.135Z,21.04
2018-07-28T00:11:15.132Z,20.87
2018-07-28T00:12:15.127Z,20.87
2018-07-28T00:13:15.131Z,20.77
2018-07-28T00:14:15.134Z,20.80
2018-07-28T00:15:15.140Z,20.81
2018-07-28T00:16:15.133Z,20.79
2018-07-28T00:17:15.137Z,20.69
2018-07-28T00:18:15.130Z,20.89
2018-07-28T00:19:15.131Z,20.89
2018-07-28T00:20:15.129Z,20.90
2018-07-28T00:21:15.130Z,20.95
2018-07-28T00:22:15.127Z,20.76
2018-07-28T00:23:15.146Z,20.76
2018-07-28T00:24:15.126Z,20.69
2018-07-28T00:25:15.145Z,20.61
2018-07-28T00:26:15.146Z,20.64
2018-07-28T00:27:15.134Z,20.64
2018-07-28T00:28:15.125Z,20.62
2018-07-28T00:29:15.125Z,20.53
2018-07-28T00:30:15.129Z,20.56
2018-07-28T00:31:15.129Z,20.42
2018-07-28T00:32:15.125Z,20.50
2018-07-28T00:33:15.129Z,20.43
2018-07-28T00:34:15.128Z,20.61
2018-07-28T00:35:15.127Z,20.64
2018-07-28T00:36:15.121Z,20.65
2018-07-28T00:37:15.116Z,20.62
2018-07-28T00:38:15.119Z,20.64
2018-07-28T00:39:15.117Z,20.58
2018-07-28T00:40:15.125Z,20.53
2018-07-28T00:41:15.135Z,20.47
2018-07-28T00:42:15.119Z,20.38
2018-07-28T00:43:15.118Z,20.38
2018-07-28T00:44:15.151Z,20.34
2018-07-28T00:45:15.116Z,20.31
2018-07-28T00:46:15.152Z,20.35
2018-07-28T00:47:15.115Z,20.38
2018-07-28T00:48:15.112Z,20.41
2018-07-28T00:49:15.113Z,20.39
2018-07-28T00:50:15.114Z,20.53
2018-07-28T00:51:15.118Z,20.43
2018-07-28T00:52:15.113Z,20.41
2018-07-28T00:53:15.110Z,20.34
2018-07-28T00:54:15.149Z,20.53
2018-07-28T00:55:15.108Z,20.46
2018-07-28T00:56:15.110Z,20.42
2018-07-28T00:57:15.111Z,20.34
2018-07-28T00:58:15.105Z,20.46
2018-07-28T00:59:15.104Z,20.23
2018-07-28T01:00:15.103Z,20.25
2018-07-28T01:01:15.103Z,20.25
2018-07-28T01:02:15.107Z,20.24
2018-07-28T01:03:15.103Z,20.12
2018-07-28T01:04:15.100Z,20.10
2018-07-28T01:05:15.101Z,20.03
2018-07-28T01:06:15.104Z,19.87
2018-07-28T01:07:15.106Z,19.83
2018-07-28T01:08:15.099Z,19.78
2018-07-28T01:09:15.102Z,19.75
2018-07-28T01:10:15.095Z,19.76
2018-07-28T01:11:15.096Z,19.86
2018-07-28T01:12:15.093Z,19.91
2018-07-28T01:13:15.095Z,19.83
2018-07-28T01:14:15.094Z,19.83
2018-07-28T01:15:15.092Z,19.80
2018-07-28T01:16:15.090Z,19.87
2018-07-28T01:17:15.088Z,20.02
2018-07-28T01:18:15.088Z,20.20
2018-07-28T01:19:15.086Z,20.21
2018-07-28T01:20:15.089Z,20.35
2018-07-28T01:21:15.088Z,20.62
2018-07-28T01:22:15.090Z,20.69
2018-07-28T01:23:15.093Z,20.68
2018-07-28T01:24:15.087Z,20.79
2018-07-28T01:25:15.090Z,20.77
2018-07-28T01:26:15.083Z,20.79
2018-07-28T01:27:15.122Z,20.79
2018-07-28T01:28:15.081Z,20.77
2018-07-28T01:29:15.081Z,20.90
2018-07-28T01:30:15.077Z,20.87
2018-07-28T02:04:31.358Z,19.39
2018-07-28T02:05:31.336Z,19.31
2018-07-28T02:06:31.329Z,19.29
2018-07-28T02:07:31.322Z,19.38
2018-07-28T02:08:31.319Z,19.35
2018-07-28T02:09:31.313Z,19.31
2018-07-28T02:10:31.309Z,19.33
2018-07-28T02:11:31.329Z,19.39
2018-07-28T02:12:31.304Z,19.40
2018-07-28T02:13:31.298Z,19.35
2018-07-28T02:14:31.295Z,19.39
2018-07-28T02:15:31.291Z,19.33
2018-07-28T02:16:31.287Z,19.42
2018-07-28T02:17:31.278Z,19.36
2018-07-28T02:18:31.282Z,19.28
2018-07-28T02:19:31.281Z,19.28
2018-07-28T02:20:31.277Z,19.17
2018-07-28T02:21:31.272Z,19.05
2018-07-28T02:22:31.295Z,18.99
2018-07-28T02:23:31.272Z,18.98
2018-07-28T02:24:31.269Z,18.91
2018-07-28T02:25:31.277Z,18.80
2018-07-28T02:26:31.261Z,18.65
2018-07-28T02:27:31.259Z,18.58
2018-07-28T02:28:31.261Z,18.61
2018-07-28T02:29:31.255Z,18.54
2018-07-28T02:30:31.254Z,18.50
2018-07-28T02:31:31.288Z,18.44
2018-07-28T02:32:31.253Z,18.43
2018-07-28T02:33:31.243Z,18.39
2018-07-28T02:34:31.247Z,18.42
2018-07-28T02:35:31.249Z,18.34
2018-07-28T02:36:31.248Z,18.31
2018-07-28T02:37:31.242Z,18.24
2018-07-28T02:38:31.245Z,18.12
2018-07-28T02:39:31.241Z,18.31
2018-07-28T02:40:31.240Z,18.31
2018-07-28T02:41:31.235Z,18.36
2018-07-28T02:42:31.234Z,18.58
2018-07-28T02:43:31.241Z,18.72
2018-07-28T02:44:31.235Z,18.77
2018-07-28T02:45:31.271Z,18.73
2018-07-28T02:46:31.229Z,18.68
2018-07-28T02:47:31.224Z,18.79
2018-07-28T02:48:31.264Z,18.77
2018-07-28T02:49:31.291Z,18.58
2018-07-28T02:50:31.232Z,18.62
2018-07-28T02:51:31.277Z,18.52
2018-07-28T02:52:31.274Z,18.52
2018-07-28T02:53:31.231Z,18.47
2018-07-28T02:54:31.230Z,18.52
2018-07-28T02:55:31.212Z,18.50
2018-07-28T02:56:31.219Z,18.44
2018-07-28T02:57:31.218Z,18.39
2018-07-28T02:58:31.207Z,18.46
2018-07-28T02:59:31.208Z,18.44
2018-07-28T03:00:31.210Z,18.43
2018-07-28T03:01:31.205Z,18.39
2018-07-28T03:02:31.196Z,18.37
2018-07-28T03:03:31.203Z,18.40
2018-07-28T03:04:31.200Z,18.37
2018-07-28T03:05:31.197Z,18.34
2018-07-28T03:06:31.192Z,18.21
2018-07-28T03:07:31.200Z,18.19
2018-07-28T03:08:31.192Z,18.17
2018-07-28T03:09:31.188Z,18.06
2018-07-28T03:10:31.194Z,18.03
2018-07-28T03:11:31.190Z,17.91
2018-07-28T03:12:31.207Z,17.81
2018-07-28T03:13:31.185Z,17.91
2018-07-28T03:14:31.206Z,17.91
2018-07-28T03:15:31.186Z,17.89
2018-07-28T03:16:31.182Z,17.91
2018-07-28T03:17:31.184Z,17.87
2018-07-28T03:18:31.177Z,17.88
2018-07-28T03:19:31.191Z,17.82
2018-07-28T03:20:31.177Z,17.82
2018-07-28T03:21:31.175Z,17.73
2018-07-28T03:22:31.178Z,17.73
2018-07-28T03:23:31.187Z,17.82
2018-07-28T03:24:31.175Z,17.69
2018-07-28T03:25:31.167Z,17.63
2018-07-28T03:26:31.164Z,17.67
2018-07-28T03:27:31.164Z,17.73
2018-07-28T03:28:31.168Z,17.69
2018-07-28T03:29:31.162Z,17.69
2018-07-28T03:30:31.159Z,17.71
2018-07-28T03:31:31.156Z,17.78
2018-07-28T03:32:31.155Z,17.84
2018-07-28T03:33:31.185Z,17.89
2018-07-28T03:34:31.154Z,17.94
2018-07-28T03:35:31.154Z,17.87
2018-07-28T03:36:31.152Z,17.76
2018-07-28T03:37:31.148Z,17.74
2018-07-28T03:38:31.142Z,17.67
2018-07-28T03:39:31.140Z,17.67
2018-07-28T03:40:31.142Z,17.66
2018-07-28T03:41:31.141Z,17.63
2018-07-28T03:42:31.140Z,17.69
2018-07-28T03:43:31.138Z,17.66
2018-07-28T03:44:31.133Z,17.69
2018-07-28T03:45:31.131Z,17.48
2018-07-28T03:46:31.131Z,17.50
2018-07-28T03:47:31.130Z,17.47
2018-07-28T03:48:31.130Z,17.57
2018-07-28T03:49:31.125Z,17.64
2018-07-28T03:50:31.122Z,17.66
2018-07-28T03:51:31.123Z,17.71
2018-07-28T03:52:31.124Z,17.81
2018-07-28T03:53:31.116Z,17.81
2018-07-28T03:54:31.116Z,17.91
2018-07-28T03:55:31.116Z,17.89
2018-07-28T03:56:31.131Z,17.88
2018-07-28T03:57:31.111Z,17.91
2018-07-28T03:58:31.107Z,17.94
2018-07-28T03:59:31.105Z,17.91
2018-07-28T04:00:31.106Z,17.91
2018-07-28T04:01:31.101Z,17.91
2018-07-28T04:02:31.101Z,17.91
2018-07-28T04:03:31.100Z,17.99
2018-07-28T04:04:31.096Z,18.00
2018-07-28T04:05:31.096Z,17.99
2018-07-28T04:06:31.093Z,18.15
2018-07-28T04:07:31.091Z,18.17
2018-07-28T04:08:31.091Z,18.25
2018-07-28T04:09:31.087Z,18.17
2018-07-28T04:10:31.089Z,18.13
2018-07-28T04:11:31.089Z,18.09
2018-07-28T04:12:31.083Z,18.10
2018-07-28T04:13:31.090Z,18.06
2018-07-28T04:14:31.223Z,18.13
2018-07-28T04:15:31.077Z,18.17
2018-07-28T04:16:31.076Z,18.37
2018-07-28T04:17:31.081Z,18.43
2018-07-28T04:18:31.071Z,18.54
2018-07-28T04:19:31.072Z,18.64
2018-07-28T04:20:31.065Z,18.70
2018-07-28T04:21:31.077Z,18.76
2018-07-28T04:22:31.069Z,18.68
2018-07-28T04:23:31.064Z,18.73
2018-07-28T04:24:31.062Z,18.70
2018-07-28T04:25:31.061Z,18.79
2018-07-28T04:26:31.066Z,18.79
2018-07-28T04:27:31.060Z,18.83
2018-07-28T04:28:31.105Z,18.77
2018-07-28T04:29:31.111Z,18.90
2018-07-28T04:30:31.054Z,18.92
2018-07-28T04:31:31.051Z,18.94
2018-07-28T04:32:31.051Z,19.06
2018-07-28T04:33:31.049Z,19.18
2018-07-28T04:34:31.050Z,19.20
2018-07-28T04:35:31.051Z,19.25
2018-07-28T04:36:31.048Z,19.31
2018-07-28T04:37:31.058Z,19.42
2018-07-28T04:38:31.049Z,19.43
2018-07-28T04:39:31.041Z,19.61
2018-07-28T04:40:31.040Z,19.76
2018-07-28T04:41:31.041Z,19.86
2018-07-28T04:42:31.045Z,19.97
2018-07-28T04:43:31.039Z,20.08
2018-07-28T04:44:52.062Z,20.25
2018-07-28T04:45:31.037Z,20.30
2018-07-28T04:46:31.037Z,20.42
2018-07-28T04:47:31.038Z,20.56
2018-07-28T04:48:31.038Z,20.77
2018-07-28T04:49:31.042Z,20.80
2018-07-28T04:50:31.036Z,20.87
2018-07-28T04:51:31.040Z,20.89
2018-07-28T04:52:31.037Z,21.06
2018-07-28T04:53:31.037Z,21.20
2018-07-28T04:54:31.043Z,21.21
2018-07-28T04:55:31.036Z,21.39
2018-07-28T04:56:31.226Z,21.35
2018-07-28T04:57:31.041Z,21.32
2018-07-28T04:58:31.038Z,21.42
2018-07-28T04:59:31.040Z,21.38
2018-07-28T05:00:31.043Z,21.50
2018-07-28T05:01:31.045Z,21.56
2018-07-28T05:02:31.044Z,21.56
2018-07-28T05:03:31.043Z,21.71
2018-07-28T05:04:31.046Z,21.81
2018-07-28T05:05:31.051Z,21.83
2018-07-28T05:06:31.046Z,21.81
2018-07-28T05:07:31.132Z,21.95
2018-07-28T05:08:31.052Z,21.92
2018-07-28T05:09:31.053Z,21.99
2018-07-28T05:10:31.055Z,22.16
2018-07-28T05:11:31.057Z,22.19
2018-07-28T05:12:31.055Z,22.31
2018-07-28T05:13:31.057Z,22.34
2018-07-28T05:14:31.060Z,22.34
2018-07-28T05:15:31.059Z,22.37
2018-07-28T05:16:31.063Z,22.37
2018-07-28T05:17:31.062Z,22.31
2018-07-28T05:18:31.064Z,22.43
2018-07-28T05:19:31.070Z,22.37
2018-07-28T05:20:31.069Z,22.41
2018-07-28T05:21:31.071Z,22.41
2018-07-28T05:22:31.073Z,22.35
2018-07-28T05:23:31.075Z,22.37
2018-07-28T05:24:31.079Z,22.28
2018-07-28T05:25:31.081Z,22.22
2018-07-28T05:26:31.084Z,22.10
2018-07-28T05:27:31.088Z,21.95
2018-07-28T05:28:31.085Z,21.88
2018-07-28T05:29:31.114Z,21.79
2018-07-28T05:30:31.099Z,21.82
2018-07-28T05:31:31.088Z,21.72
2018-07-28T05:32:31.093Z,21.61
2018-07-28T05:33:31.091Z,21.57
2018-07-28T05:34:31.097Z,21.56
2018-07-28T05:35:31.097Z,21.61
2018-07-28T05:36:31.101Z,21.67
2018-07-28T05:37:31.099Z,21.64
2018-07-28T05:38:31.101Z,21.59
2018-07-28T05:39:31.102Z,21.57
2018-07-28T05:40:31.102Z,21.72
2018-07-28T05:41:31.109Z,21.75
2018-07-28T05:42:31.147Z,21.75
2018-07-28T05:43:31.108Z,21.64
2018-07-28T05:44:31.114Z,21.63
2018-07-28T05:45:31.114Z,21.75
2018-07-28T05:46:31.115Z,21.79
2018-07-28T05:47:31.114Z,21.83
2018-07-28T05:48:31.119Z,21.83
2018-07-28T05:49:31.118Z,21.99
2018-07-28T05:50:31.120Z,22.07
2018-07-28T05:51:31.127Z,21.98
2018-07-28T05:52:31.127Z,21.99
2018-07-28T05:53:31.124Z,21.95
2018-07-28T05:54:31.125Z,21.99
2018-07-28T05:55:31.128Z,22.16
2018-07-28T05:56:31.134Z,22.17
2018-07-28T05:57:31.134Z,22.25
2018-07-28T05:58:31.134Z,22.12
2018-07-28T05:59:31.136Z,22.25
2018-07-28T06:00:31.137Z,22.13
2018-07-28T06:01:31.143Z,22.25
2018-07-28T06:02:31.275Z,22.29
2018-07-28T06:03:31.143Z,22.49
2018-07-28T06:04:31.144Z,22.59
2018-07-28T06:05:31.146Z,22.78
2018-07-28T06:06:31.146Z,22.86
2018-07-28T06:07:31.149Z,23.09
2018-07-28T06:08:31.156Z,23.31
2018-07-28T06:09:31.153Z,23.53
2018-07-28T06:10:31.159Z,23.64
2018-07-28T06:11:31.160Z,23.82
2018-07-28T06:12:31.161Z,23.80
2018-07-28T06:13:31.172Z,23.85
2018-07-28T06:14:31.167Z,23.98
2018-07-28T06:15:31.171Z,24.41
2018-07-28T06:16:31.175Z,24.42
2018-07-28T06:17:31.175Z,24.63
2018-07-28T06:18:31.180Z,24.80
2018-07-28T06:19:31.980Z,24.87
2018-07-28T06:20:31.176Z,24.88
2018-07-28T06:21:31.188Z,24.91
2018-07-28T06:22:31.194Z,25.02
2018-07-28T06:23:31.196Z,25.12
2018-07-28T06:24:31.213Z,25.09
2018-07-28T06:25:31.200Z,25.00
2018-07-28T06:26:31.207Z,25.22
2018-07-28T06:27:31.204Z,24.97
2018-07-28T06:28:31.216Z,24.61
2018-07-28T06:29:31.226Z,24.45
2018-07-28T06:30:31.225Z,24.37
2018-07-28T06:31:31.232Z,24.42
2018-07-28T06:32:31.227Z,24.67
2018-07-28T06:33:31.239Z,24.79
2018-07-28T06:34:31.239Z,24.98
2018-07-28T06:35:31.246Z,25.01
2018-07-28T06:36:31.287Z,25.10
2018-07-28T06:37:31.250Z,24.91
2018-07-28T06:38:31.258Z,24.60
2018-07-28T06:39:31.296Z,24.41
2018-07-28T06:40:31.263Z,24.49
2018-07-28T06:41:31.272Z,24.61
2018-07-28T06:42:31.282Z,24.87
2018-07-28T06:43:31.290Z,25.25
2018-07-28T06:44:31.294Z,25.54
2018-07-28T06:45:31.290Z,25.80
2018-07-28T06:46:31.291Z,25.72
2018-07-28T06:47:31.297Z,25.89
2018-07-28T06:48:31.302Z,25.82
2018-07-28T06:49:31.302Z,26.17
2018-07-28T06:50:31.305Z,26.32
2018-07-28T06:51:31.314Z,26.57
2018-07-28T06:52:31.317Z,26.50
2018-07-28T06:53:31.320Z,26.69
2018-07-28T06:54:31.327Z,26.80
2018-07-28T06:55:31.330Z,27.16
2018-07-28T06:56:31.336Z,26.69
2018-07-28T06:57:31.345Z,26.29
2018-07-28T06:58:31.368Z,25.72
2018-07-28T06:59:31.352Z,25.68
2018-07-28T07:00:31.358Z,25.56
2018-07-28T07:01:31.362Z,25.49
2018-07-28T07:02:31.370Z,25.31
2018-07-28T07:03:31.374Z,25.39
2018-07-28T07:04:31.383Z,25.49
2018-07-28T07:05:31.404Z,25.06
2018-07-28T07:06:31.390Z,25.06
2018-07-28T07:07:31.396Z,24.80
2018-07-28T07:08:31.402Z,24.75
2018-07-28T07:09:31.408Z,24.63
2018-07-28T07:10:31.415Z,24.52
2018-07-28T07:11:31.443Z,24.53
2018-07-28T07:12:31.426Z,24.41
2018-07-28T07:13:31.425Z,24.41
2018-07-28T07:14:31.432Z,24.60
2018-07-28T07:15:31.435Z,24.50
2018-07-28T07:16:31.442Z,24.47
2018-07-28T07:17:31.450Z,24.50
2018-07-28T07:18:31.455Z,24.68
2018-07-28T07:19:31.466Z,24.77
2018-07-28T07:20:31.463Z,24.64
2018-07-28T07:21:31.464Z,24.73
2018-07-28T07:22:31.468Z,24.68
2018-07-28T07:23:31.478Z,24.82
2018-07-28T07:24:31.481Z,24.63
2018-07-28T07:25:31.486Z,24.61
2018-07-28T07:26:31.489Z,24.67
2018-07-28T07:27:31.493Z,24.60
2018-07-28T07:28:31.497Z,24.61
2018-07-28T07:29:31.501Z,24.59
2018-07-28T07:30:31.508Z,24.59
2018-07-28T07:31:31.513Z,24.44
2018-07-28T07:32:31.519Z,24.37
2018-07-28T07:33:31.520Z,24.44
2018-07-28T07:34:31.523Z,24.27
2018-07-28T07:35:31.528Z,24.37
2018-07-28T07:36:31.535Z,24.39
2018-07-28T07:37:31.536Z,24.23
2018-07-28T07:38:31.555Z,24.23
2018-07-28T07:39:31.542Z,24.10
2018-07-28T07:40:31.552Z,23.97
2018-07-28T07:41:31.554Z,23.94
2018-07-28T07:42:31.553Z,23.82
2018-07-28T07:43:31.559Z,23.80
2018-07-28T07:44:31.560Z,23.80
2018-07-28T07:45:31.603Z,23.83
2018-07-28T07:46:31.613Z,23.90
2018-07-28T07:47:31.609Z,23.97
2018-07-28T07:48:31.576Z,24.04
2018-07-28T07:49:31.580Z,23.95
2018-07-28T07:50:31.578Z,23.94
2018-07-28T07:51:31.585Z,23.83
2018-07-28T07:52:31.586Z,23.76
2018-07-28T07:53:31.611Z,23.83
2018-07-28T07:54:31.586Z,23.79
2018-07-28T07:55:31.593Z,23.62
2018-07-28T07:56:31.604Z,23.58
2018-07-28T07:57:31.605Z,23.55
2018-07-28T07:58:31.595Z,23.52
2018-07-28T07:59:31.605Z,23.49
2018-07-28T08:00:31.607Z,23.53
2018-07-28T08:01:31.613Z,23.43
2018-07-28T08:02:31.652Z,23.38
2018-07-28T08:03:31.619Z,23.24
2018-07-28T08:04:31.621Z,23.26
2018-07-28T08:05:31.622Z,23.17
2018-07-28T08:06:31.676Z,23.12
2018-07-28T08:07:31.628Z,23.08
2018-07-28T08:08:31.630Z,22.99
2018-07-28T08:09:31.621Z,22.97
2018-07-28T08:10:31.633Z,22.89
2018-07-28T08:11:31.634Z,22.86
2018-07-28T08:12:31.684Z,22.82
2018-07-28T08:13:31.643Z,22.90
2018-07-28T08:14:31.646Z,22.87
2018-07-28T08:15:31.639Z,22.84
2018-07-28T08:16:31.648Z,22.80
2018-07-28T08:17:31.646Z,22.68
2018-07-28T08:18:31.651Z,22.68
2018-07-28T08:19:31.653Z,22.57
2018-07-28T08:20:31.663Z,22.46
2018-07-28T08:21:31.657Z,22.39
2018-07-28T08:22:31.662Z,22.27
2018-07-28T08:23:31.659Z,22.20
2018-07-28T08:24:31.658Z,22.17
2018-07-28T08:25:31.670Z,22.10
2018-07-28T08:26:31.663Z,22.02
2018-07-28T08:27:31.665Z,21.99
2018-07-28T08:28:31.668Z,22.02
2018-07-28T08:29:31.662Z,21.95
2018-07-28T08:30:31.671Z,21.79
2018-07-28T08:31:31.673Z,21.79
2018-07-28T08:32:31.674Z,21.81
2018-07-28T08:33:31.764Z,21.78
2018-07-28T08:34:31.675Z,21.72
2018-07-28T08:35:31.682Z,21.72
2018-07-28T08:36:31.676Z,21.72
2018-07-28T08:37:31.701Z,21.72
2018-07-28T08:38:31.679Z,21.66
2018-07-28T08:39:31.682Z,21.61
2018-07-28T08:40:31.691Z,21.51
2018-07-28T08:41:31.683Z,21.46
2018-07-28T08:42:31.683Z,21.50
2018-07-28T08:43:31.684Z,21.46
2018-07-28T08:44:31.682Z,21.39
2018-07-28T08:45:31.684Z,21.34
2018-07-28T08:46:31.686Z,21.39
2018-07-28T08:47:31.689Z,21.38
2018-07-28T08:48:31.685Z,21.41
2018-07-28T08:49:31.693Z,21.45
2018-07-28T08:50:31.693Z,21.54
2018-07-28T08:51:31.691Z,21.50
2018-07-28T08:52:31.707Z,21.61
2018-07-28T08:53:31.693Z,21.72
2018-07-28T08:54:31.741Z,21.79
2018-07-28T08:55:31.748Z,21.75
2018-07-28T08:56:31.705Z,21.82
2018-07-28T08:57:31.691Z,21.76
2018-07-28T08:58:31.691Z,21.71
2018-07-28T08:59:31.697Z,21.71
2018-07-28T09:00:31.696Z,21.66
2018-07-28T09:01:31.696Z,21.63
2018-07-28T09:02:31.697Z,21.67
2018-07-28T09:03:31.699Z,21.61
2018-07-28T09:04:31.703Z,21.61
2018-07-28T09:05:31.699Z,21.46
2018-07-28T09:06:31.707Z,21.42
2018-07-28T09:07:31.701Z,21.42
2018-07-28T09:08:31.699Z,21.34
2018-07-28T09:09:31.701Z,21.38
2018-07-28T09:10:31.748Z,21.34
2018-07-28T09:11:31.703Z,21.32
2018-07-28T09:12:31.725Z,21.32
2018-07-28T09:13:31.705Z,21.26
2018-07-28T09:14:31.706Z,21.16
2018-07-28T09:15:31.706Z,21.20
2018-07-28T09:16:31.712Z,21.09
2018-07-28T09:17:31.712Z,21.08
2018-07-28T09:18:31.708Z,21.06
2018-07-28T09:19:31.705Z,21.04
2018-07-28T09:20:31.707Z,21.05
2018-07-28T09:21:31.710Z,20.99
2018-07-28T09:22:31.806Z,20.99
2018-07-28T09:23:31.735Z,20.90
2018-07-28T09:24:31.711Z,20.87
2018-07-28T09:25:31.709Z,20.83
2018-07-28T09:26:31.718Z,20.77
2018-07-28T09:27:31.708Z,20.81
2018-07-28T09:28:31.709Z,20.90
2018-07-28T09:29:31.714Z,20.90
2018-07-28T09:30:31.756Z,20.74
2018-07-28T09:31:31.709Z,20.71
2018-07-28T09:32:31.710Z,20.76
2018-07-28T09:33:31.711Z,20.72
2018-07-28T09:34:31.706Z,20.74
2018-07-28T09:35:31.715Z,20.66
2018-07-28T09:36:31.713Z,20.68
2018-07-28T09:37:31.712Z,20.68
2018-07-28T09:38:31.719Z,20.69
2018-07-28T09:39:31.710Z,20.80
2018-07-28T09:40:31.713Z,20.89
2018-07-28T09:41:31.714Z,20.87
2018-07-28T09:42:31.731Z,20.83
2018-07-28T09:43:31.714Z,20.83
2018-07-28T09:44:31.722Z,20.89
2018-07-28T09:45:31.712Z,20.89
2018-07-28T09:46:31.733Z,20.90
2018-07-28T09:47:31.715Z,20.87
2018-07-28T09:48:31.715Z,20.86
2018-07-28T09:49:31.810Z,20.80
2018-07-28T09:50:31.763Z,20.74
2018-07-28T09:51:31.731Z,20.79
2018-07-28T09:52:31.733Z,20.74
2018-07-28T09:53:31.721Z,20.84
2018-07-28T09:54:31.722Z,20.77
2018-07-28T09:55:31.726Z,20.87
2018-07-28T09:56:31.726Z,20.90
2018-07-28T09:57:31.732Z,20.90
2018-07-28T09:58:31.724Z,21.04
2018-07-28T09:59:31.728Z,21.27
2018-07-28T10:00:31.732Z,21.34
2018-07-28T10:01:31.731Z,21.35
2018-07-28T10:02:31.746Z,21.54
2018-07-28T10:03:31.739Z,21.60
2018-07-28T10:04:31.739Z,21.94
2018-07-28T10:05:31.789Z,22.09
2018-07-28T10:06:32.036Z,22.17
2018-07-28T10:07:31.743Z,21.85
2018-07-28T10:08:31.755Z,21.98
2018-07-28T10:09:31.758Z,22.32
2018-07-28T10:10:31.750Z,22.57
2018-07-28T10:11:31.756Z,22.86
2018-07-28T10:12:31.756Z,23.04
2018-07-28T10:13:31.765Z,22.97
2018-07-28T10:14:31.780Z,23.34
2018-07-28T10:15:31.766Z,23.58
2018-07-28T10:16:31.774Z,23.68
2018-07-28T10:17:31.777Z,23.60
2018-07-28T10:18:31.782Z,23.92
2018-07-28T10:19:31.788Z,23.95
2018-07-28T10:20:31.791Z,24.27
2018-07-28T10:21:31.794Z,24.24
2018-07-28T10:22:31.805Z,24.04
2018-07-28T10:23:31.827Z,24.20
2018-07-28T10:24:31.842Z,23.98
2018-07-28T10:25:31.818Z,23.95
2018-07-28T10:26:31.829Z,24.19
2018-07-28T10:27:31.825Z,24.08
2018-07-28T10:28:31.870Z,24.42
2018-07-28T10:29:31.849Z,24.61
2018-07-28T10:30:31.850Z,25.02
2018-07-28T10:31:31.868Z,25.32
2018-07-28T10:32:31.863Z,25.62
2018-07-28T10:33:31.874Z,25.84
2018-07-28T10:34:31.882Z,25.47
2018-07-28T10:35:31.887Z,25.42
2018-07-28T10:36:31.928Z,26.09
2018-07-28T10:37:31.903Z,26.32
2018-07-28T10:38:31.908Z,26.32
2018-07-28T10:39:31.912Z,26.72
2018-07-28T10:40:31.922Z,27.20
2018-07-28T10:41:31.927Z,27.54
2018-07-28T10:42:31.942Z,27.31
2018-07-28T10:43:31.951Z,27.19
2018-07-28T10:44:31.958Z,27.88
2018-07-28T10:45:32.017Z,28.54
2018-07-28T10:46:31.982Z,28.73
2018-07-28T10:47:31.994Z,28.47
2018-07-28T10:48:32.003Z,27.91
2018-07-28T10:49:32.014Z,27.47
2018-07-28T10:50:32.035Z,27.50
2018-07-28T10:51:32.033Z,27.82
2018-07-28T10:52:32.048Z,28.73
2018-07-28T10:53:32.060Z,29.13
2018-07-28T10:54:32.066Z,29.38
2018-07-28T10:55:32.149Z,30.09
2018-07-28T10:56:32.093Z,30.29
2018-07-28T10:57:32.105Z,30.91
2018-07-28T10:58:32.237Z,31.57
2018-07-28T10:59:32.328Z,31.20
2018-07-28T11:00:33.042Z,30.19
2018-07-28T11:01:32.181Z,31.21
2018-07-28T11:02:32.967Z,31.15
2018-07-28T11:03:32.451Z,30.96
2018-07-28T11:04:32.212Z,30.71
2018-07-28T11:05:32.241Z,31.06
2018-07-28T11:06:32.324Z,30.50
2018-07-28T11:07:32.255Z,30.29
2018-07-28T11:08:32.261Z,30.36
2018-07-28T11:09:32.272Z,30.33
2018-07-28T11:10:32.283Z,30.12
2018-07-28T11:11:32.298Z,30.16
2018-07-28T11:12:32.307Z,30.23
2018-07-28T11:13:32.322Z,29.99
2018-07-28T11:14:32.335Z,29.49
2018-07-28T11:15:32.345Z,29.44
2018-07-28T11:16:32.358Z,29.18
2018-07-28T11:17:32.372Z,29.19
2018-07-28T11:18:32.433Z,29.22
2018-07-28T11:19:32.391Z,29.62
2018-07-28T11:20:32.412Z,29.77
2018-07-28T11:21:32.413Z,29.82
2018-07-28T11:22:32.439Z,30.07
2018-07-28T11:23:32.437Z,30.76
2018-07-28T11:24:32.480Z,30.91
2018-07-28T11:25:32.455Z,31.17
2018-07-28T11:26:32.472Z,31.35
2018-07-28T11:27:32.492Z,31.38
2018-07-28T11:28:32.498Z,30.80
2018-07-28T11:29:32.510Z,31.50
2018-07-28T11:30:32.530Z,31.70
2018-07-28T11:31:32.564Z,30.91
2018-07-28T11:32:32.598Z,31.28
2018-07-28T11:33:32.584Z,31.38
2018-07-28T11:34:32.574Z,32.11
2018-07-28T11:35:32.584Z,32.15
2018-07-28T11:36:32.603Z,32.35
2018-07-28T11:37:32.614Z,32.29
2018-07-28T11:38:32.627Z,32.02
2018-07-28T11:39:32.655Z,31.76
2018-07-28T11:40:32.662Z,31.30
2018-07-28T11:41:32.673Z,30.67
2018-07-28T11:42:32.702Z,30.50
2018-07-28T11:43:32.700Z,30.64
2018-07-28T11:44:32.713Z,30.54
2018-07-28T11:45:32.730Z,30.72
2018-07-28T11:46:32.738Z,30.61
2018-07-28T11:47:32.750Z,30.98
2018-07-28T11:48:32.764Z,31.11
2018-07-28T11:49:32.782Z,31.72
2018-07-28T11:50:32.792Z,32.40
2018-07-28T11:51:32.807Z,33.17
2018-07-28T11:52:32.819Z,33.23
2018-07-28T11:53:32.829Z,33.14
2018-07-28T11:54:32.857Z,32.43
2018-07-28T11:55:32.858Z,32.40
2018-07-28T11:56:32.892Z,31.96
2018-07-28T11:57:32.899Z,32.24
2018-07-28T11:58:32.992Z,31.28
2018-07-28T11:59:32.925Z,30.57
2018-07-28T12:00:32.937Z,30.30
2018-07-28T12:01:32.960Z,30.57
2018-07-28T12:02:32.965Z,30.52
2018-07-28T12:03:32.981Z,30.46
2018-07-28T12:04:32.992Z,30.52
2018-07-28T12:05:33.046Z,30.29
2018-07-28T12:06:33.019Z,30.27
2018-07-28T12:07:33.029Z,30.38
2018-07-28T12:08:33.040Z,30.15
2018-07-28T12:09:33.051Z,29.96
2018-07-28T12:10:33.061Z,29.89
2018-07-28T12:11:33.077Z,29.87
2018-07-28T12:12:33.135Z,29.89
2018-07-28T12:13:33.112Z,29.68
2018-07-28T12:14:33.110Z,29.65
2018-07-28T12:15:33.120Z,29.57
2018-07-28T12:16:33.134Z,29.81
2018-07-28T12:17:33.140Z,29.70
2018-07-28T12:18:33.183Z,29.35
2018-07-28T12:19:33.155Z,29.35
2018-07-28T12:20:33.171Z,29.26
2018-07-28T12:21:33.180Z,29.38
2018-07-28T12:22:33.187Z,29.19
2018-07-28T12:23:33.202Z,29.15
2018-07-28T12:24:33.199Z,29.01
2018-07-28T12:25:33.218Z,29.11
2018-07-28T12:26:33.232Z,29.29
2018-07-28T12:27:33.242Z,29.45
2018-07-28T12:28:33.249Z,29.16
2018-07-28T12:29:33.253Z,29.22
2018-07-28T12:30:33.264Z,29.16
2018-07-28T12:31:33.272Z,28.84
2018-07-28T12:32:33.283Z,28.66
2018-07-28T12:33:33.291Z,28.59
2018-07-28T12:34:33.359Z,28.51
2018-07-28T12:35:33.310Z,28.68
2018-07-28T12:36:33.335Z,28.69
2018-07-28T12:37:33.332Z,28.85
2018-07-28T12:38:33.337Z,28.73
2018-07-28T12:39:33.340Z,28.80
2018-07-28T12:40:33.354Z,28.82
2018-07-28T12:41:33.359Z,28.66
2018-07-28T12:42:33.369Z,28.69
2018-07-28T12:43:33.413Z,28.95
2018-07-28T12:44:33.390Z,28.75
2018-07-28T12:45:33.394Z,28.78
2018-07-28T12:46:33.402Z,29.00
2018-07-28T12:47:33.411Z,29.22
2018-07-28T12:48:33.430Z,29.41
2018-07-28T12:49:33.439Z,29.60
2018-07-28T12:50:33.431Z,29.87
2018-07-28T12:51:33.446Z,29.99
2018-07-28T12:52:33.454Z,29.89
2018-07-28T12:53:33.462Z,29.55
2018-07-28T12:54:33.472Z,29.56
2018-07-28T12:55:33.532Z,29.63
2018-07-28T12:56:33.489Z,29.60
2018-07-28T12:57:33.500Z,29.44
2018-07-28T12:58:33.501Z,29.37
2018-07-28T12:59:33.518Z,29.35
2018-07-28T13:00:33.524Z,29.11
2018-07-28T13:01:33.558Z,28.75
2018-07-28T13:02:33.543Z,28.72
2018-07-28T13:03:33.545Z,28.70
2018-07-28T13:04:33.563Z,28.58
2018-07-28T13:05:33.568Z,28.40
2018-07-28T13:06:33.580Z,28.19
2018-07-28T13:07:33.599Z,27.88
2018-07-28T13:08:33.598Z,27.74
2018-07-28T13:09:33.597Z,27.54
2018-07-28T13:10:33.609Z,27.62
2018-07-28T13:11:33.615Z,27.50
2018-07-28T13:12:33.654Z,27.46
2018-07-28T13:13:33.629Z,27.33
2018-07-28T13:14:33.637Z,27.23
2018-07-28T13:15:33.646Z,27.04
2018-07-28T13:16:33.649Z,27.17
2018-07-28T13:17:33.660Z,27.14
2018-07-28T13:18:33.675Z,27.14
2018-07-28T13:19:33.674Z,27.20
2018-07-28T13:20:33.684Z,27.10
2018-07-28T13:21:33.683Z,27.29
2018-07-28T13:22:33.710Z,27.42
2018-07-28T13:23:33.754Z,27.53
2018-07-28T13:24:33.709Z,27.31
2018-07-28T13:25:33.714Z,27.41